Time;durP1;ratioP1;P1;durP2;ratioP2;P2;SDS_P1;SDS_P2;PMS_P1;PMS_P2;Temp;Humidity;BMP_temperature;BMP_pressure;BME280_temperature;BME280_humidity;BME280_pressure;Samples;Min_cycle;Max_cycle;Signal;HPM_P1;HPM_P2
2022/01/24 00:00:13;;;;;;;8.18;5.40;;;;;;;;;;5071115;28;20047;-77
2022/01/24 00:02:41;;;;;;;7.72;5.38;;;;;;;;;;5072986;28;20394;-77
2022/01/24 00:05:07;;;;;;;8.77;5.70;;;;;;;;;;5072461;28;20045;-77
2022/01/24 00:07:33;;;;;;;10.75;6.43;;;;;;;;;;5071802;28;20043;-77
2022/01/24 00:10:03;;;;;;;9.93;6.25;;;;;;;;;;5054644;28;20053;-77
2022/01/24 00:12:39;;;;;;;10.85;5.70;;;;;;;;;;5070988;28;20064;-77
2022/01/24 00:17:41;;;;;;;8.68;5.60;;;;;;;;;;5071395;28;20052;-77
2022/01/24 00:28:21;;;;;;;8.10;5.32;;;;;;;;;;5057119;28;20143;-77
2022/01/24 00:30:48;;;;;;;9.27;5.97;;;;;;;;;;5071225;28;20036;-77
2022/01/24 00:33:15;;;;;;;8.80;5.55;;;;;;;;;;5070929;28;20045;-77
2022/01/24 00:35:41;;;;;;;8.80;5.82;;;;;;;;;;5071256;28;20040;-77
2022/01/24 00:38:07;;;;;;;8.57;5.85;;;;;;;;;;5071001;28;20640;-77
2022/01/24 00:40:38;;;;;;;8.27;5.88;;;;;;;;;;5070752;28;20041;-77
2022/01/24 00:43:11;;;;;;;9.02;5.97;;;;;;;;;;5071167;28;20056;-77
2022/01/24 00:49:02;;;;;;;9.55;5.90;;;;;;;;;;5070666;28;20238;-77
2022/01/24 00:56:10;;;;;;;10.55;5.90;;;;;;;;;;5070172;28;20044;-77
2022/01/24 00:58:36;;;;;;;9.02;5.93;;;;;;;;;;5054008;28;20093;-77
2022/01/24 01:01:03;;;;;;;10.25;6.50;;;;;;;;;;5070031;28;20048;-77
2022/01/24 01:03:29;;;;;;;10.05;6.57;;;;;;;;;;5053960;28;20165;-77
2022/01/24 01:06:05;;;;;;;10.70;6.40;;;;;;;;;;5070056;28;20051;-77
2022/01/24 01:19:31;;;;;;;12.25;7.00;;;;;;;;;;5069136;28;20040;-77
2022/01/24 01:21:57;;;;;;;12.73;6.68;;;;;;;;;;5069058;28;20400;-77
2022/01/24 01:24:25;;;;;;;12.77;7.13;;;;;;;;;;5069015;28;20045;-77
2022/01/24 01:27:16;;;;;;;12.73;7.22;;;;;;;;;;5052610;28;20068;-77
2022/01/24 01:30:17;;;;;;;13.57;7.60;;;;;;;;;;5068864;28;20127;-77
2022/01/24 01:54:17;;;;;;;15.23;9.02;;;;;;;;;;5068959;28;20048;-77
2022/01/24 01:56:43;;;;;;;14.85;9.00;;;;;;;;;;5068389;28;20090;-77
2022/01/24 01:59:10;;;;;;;15.55;8.77;;;;;;;;;;5067973;28;20041;-77
2022/01/24 02:01:36;;;;;;;16.73;9.10;;;;;;;;;;5068442;28;20045;-77
2022/01/24 02:04:05;;;;;;;16.40;8.80;;;;;;;;;;5068097;28;20036;-77
2022/01/24 02:06:31;;;;;;;15.57;8.95;;;;;;;;;;5051993;28;20102;-77
2022/01/24 02:09:01;;;;;;;18.10;9.65;;;;;;;;;;5067936;28;20040;-77
2022/01/24 02:11:27;;;;;;;15.05;9.32;;;;;;;;;;5068012;28;20094;-77
2022/01/24 02:13:54;;;;;;;15.63;9.30;;;;;;;;;;5028486;28;1105066;-77
2022/01/24 02:16:43;;;;;;;15.60;8.98;;;;;;;;;;5069380;28;20052;-77
2022/01/24 02:19:23;;;;;;;16.35;9.40;;;;;;;;;;5051327;28;20040;-77
2022/01/24 02:24:39;;;;;;;16.45;9.35;;;;;;;;;;5068782;28;20123;-77
2022/01/24 02:27:05;;;;;;;17.70;10.02;;;;;;;;;;5052297;28;20476;-77
2022/01/24 02:29:48;;;;;;;16.58;9.32;;;;;;;;;;5053390;28;20037;-77
2022/01/24 02:32:15;;;;;;;16.23;9.18;;;;;;;;;;5048488;28;20076;-77
2022/01/24 02:34:43;;;;;;;18.27;9.55;;;;;;;;;;5049155;28;20466;-77
2022/01/24 02:37:11;;;;;;;16.02;9.10;;;;;;;;;;5048483;28;20056;-77
2022/01/24 02:52:55;;;;;;;14.20;8.43;;;;;;;;;;5068156;28;20487;-77
2022/01/24 02:55:21;;;;;;;16.70;8.45;;;;;;;;;;5051785;28;20036;-77
2022/01/24 02:57:47;;;;;;;16.02;9.48;;;;;;;;;;5051845;28;20089;-77
2022/01/24 03:00:14;;;;;;;18.83;8.85;;;;;;;;;;5067478;28;20063;-77
2022/01/24 03:02:40;;;;;;;13.30;7.93;;;;;;;;;;5064021;28;20052;-77
2022/01/24 03:05:06;;;;;;;14.38;8.57;;;;;;;;;;5067149;28;20071;-77
2022/01/24 03:07:32;;;;;;;14.10;8.00;;;;;;;;;;5067227;28;20048;-77
2022/01/24 03:10:01;;;;;;;13.25;7.75;;;;;;;;;;5067899;28;20040;-77
2022/01/24 03:12:46;;;;;;;12.13;7.15;;;;;;;;;;5068241;28;20408;-77
2022/01/24 03:15:13;;;;;;;12.90;7.60;;;;;;;;;;5067999;28;20053;-77
2022/01/24 03:17:39;;;;;;;12.48;7.80;;;;;;;;;;5068422;28;20054;-77
2022/01/24 03:20:06;;;;;;;13.88;7.70;;;;;;;;;;5067653;28;20040;-77
2022/01/24 03:22:32;;;;;;;12.77;7.50;;;;;;;;;;5067861;28;20045;-77
2022/01/24 03:24:58;;;;;;;12.50;7.20;;;;;;;;;;5068653;28;20048;-77
2022/01/24 03:27:25;;;;;;;12.77;7.55;;;;;;;;;;5067861;28;20056;-77
2022/01/24 03:29:51;;;;;;;12.80;7.43;;;;;;;;;;5068244;28;20392;-77
2022/01/24 03:32:17;;;;;;;13.88;8.07;;;;;;;;;;5066835;28;20062;-77
2022/01/24 03:34:43;;;;;;;13.90;7.70;;;;;;;;;;5068079;28;20088;-77
2022/01/24 03:37:09;;;;;;;11.13;7.15;;;;;;;;;;5068404;28;20515;-77
2022/01/24 03:39:35;;;;;;;12.15;7.80;;;;;;;;;;5067733;28;20052;-77
2022/01/24 03:42:01;;;;;;;13.57;7.63;;;;;;;;;;5067377;28;20500;-77
2022/01/24 03:44:28;;;;;;;11.95;7.43;;;;;;;;;;5051254;28;20045;-77
2022/01/24 03:52:08;;;;;;;11.52;7.45;;;;;;;;;;5067291;28;20471;-77
2022/01/24 03:54:35;;;;;;;12.32;7.35;;;;;;;;;;5050681;28;20048;-77
2022/01/24 03:57:01;;;;;;;13.18;7.68;;;;;;;;;;5067539;28;20400;-77
2022/01/24 03:59:29;;;;;;;13.00;7.75;;;;;;;;;;5067815;28;20040;-77
2022/01/24 04:01:55;;;;;;;14.23;8.32;;;;;;;;;;5067325;28;20044;-77
2022/01/24 04:04:21;;;;;;;14.48;8.13;;;;;;;;;;5068909;28;20037;-77
2022/01/24 04:06:48;;;;;;;13.93;8.13;;;;;;;;;;5067469;28;20036;-77
2022/01/24 04:09:15;;;;;;;14.48;8.02;;;;;;;;;;5067242;28;20435;-77
2022/01/24 04:11:41;;;;;;;14.68;8.38;;;;;;;;;;5051232;28;20044;-77
2022/01/24 04:22:13;;;;;;;15.07;8.15;;;;;;;;;;5067522;28;20048;-77
2022/01/24 04:24:40;;;;;;;13.93;8.55;;;;;;;;;;5050619;28;20127;-77
2022/01/24 04:27:06;;;;;;;13.65;8.30;;;;;;;;;;5067444;28;20158;-77
2022/01/24 04:29:33;;;;;;;15.50;8.40;;;;;;;;;;5067647;28;20044;-77
2022/01/24 04:31:59;;;;;;;14.10;8.27;;;;;;;;;;5050068;28;20087;-77
2022/01/24 04:34:25;;;;;;;15.75;8.73;;;;;;;;;;5051047;28;20135;-77
2022/01/24 04:36:52;;;;;;;13.63;8.40;;;;;;;;;;5067243;28;20076;-77
2022/01/24 04:39:18;;;;;;;14.27;8.57;;;;;;;;;;5066729;28;20044;-77
2022/01/24 04:41:50;;;;;;;15.32;8.43;;;;;;;;;;5067532;28;20090;-77
2022/01/24 04:46:56;;;;;;;16.30;9.00;;;;;;;;;;5071032;28;20399;-77
2022/01/24 04:54:42;;;;;;;15.57;9.15;;;;;;;;;;5071123;28;20102;-77
2022/01/24 04:57:12;;;;;;;15.10;8.70;;;;;;;;;;5070330;28;20507;-78
2022/01/24 04:59:40;;;;;;;16.63;8.50;;;;;;;;;;5054030;28;20123;-78
2022/01/24 05:02:06;;;;;;;15.35;8.77;;;;;;;;;;5059299;28;20469;-77
2022/01/24 05:04:32;;;;;;;13.80;7.80;;;;;;;;;;5053355;28;20116;-77
2022/01/24 05:06:58;;;;;;;13.98;8.43;;;;;;;;;;5068667;28;20082;-77
2022/01/24 05:09:27;;;;;;;15.13;9.15;;;;;;;;;;5053954;28;20090;-77
2022/01/24 05:11:59;;;;;;;15.90;9.38;;;;;;;;;;5069931;28;20056;-77
2022/01/24 05:25:39;;;;;;;15.38;9.05;;;;;;;;;;5055537;28;20055;-77
2022/01/24 05:28:05;;;;;;;19.70;10.27;;;;;;;;;;5053479;28;20496;-77
2022/01/24 05:30:31;;;;;;;21.52;10.73;;;;;;;;;;5053594;28;20868;-77
2022/01/24 05:32:57;;;;;;;23.17;11.60;;;;;;;;;;5052936;28;20048;-77
2022/01/24 05:35:23;;;;;;;25.77;12.70;;;;;;;;;;5070103;28;20036;-77
2022/01/24 05:37:49;;;;;;;23.73;12.48;;;;;;;;;;5070355;28;20083;-77
2022/01/24 05:40:15;;;;;;;21.52;12.32;;;;;;;;;;5053228;28;20575;-77
2022/01/24 05:42:41;;;;;;;26.27;12.88;;;;;;;;;;5069583;28;20080;-77
2022/01/24 05:45:08;;;;;;;23.40;12.57;;;;;;;;;;5069561;28;20477;-77
2022/01/24 05:47:34;;;;;;;23.88;12.32;;;;;;;;;;5069745;28;20120;-77
2022/01/24 05:50:00;;;;;;;21.92;11.98;;;;;;;;;;5070516;28;20102;-77
2022/01/24 05:52:26;;;;;;;20.83;12.07;;;;;;;;;;5069591;28;20045;-77
2022/01/24 05:54:52;;;;;;;21.73;12.15;;;;;;;;;;5069797;28;20044;-77
2022/01/24 05:57:18;;;;;;;22.65;12.95;;;;;;;;;;5069103;28;20040;-77
2022/01/24 05:59:44;;;;;;;24.05;13.20;;;;;;;;;;5069386;28;20048;-77
2022/01/24 06:02:10;;;;;;;24.27;12.88;;;;;;;;;;5069209;28;20531;-77
2022/01/24 06:04:36;;;;;;;23.10;12.57;;;;;;;;;;5069630;28;20063;-77
2022/01/24 06:07:03;;;;;;;27.42;13.77;;;;;;;;;;5069380;28;20040;-77
2022/01/24 06:09:29;;;;;;;28.52;15.00;;;;;;;;;;5069659;28;20133;-77
2022/01/24 06:11:55;;;;;;;25.80;13.77;;;;;;;;;;5069195;28;20514;-77
2022/01/24 06:14:21;;;;;;;30.33;15.75;;;;;;;;;;5052024;28;20512;-77
2022/01/24 06:16:47;;;;;;;27.17;14.63;;;;;;;;;;5069703;28;20052;-77
2022/01/24 06:19:14;;;;;;;29.17;15.30;;;;;;;;;;5068900;28;20040;-77
2022/01/24 06:21:40;;;;;;;30.17;15.02;;;;;;;;;;5052888;28;20480;-77
2022/01/24 06:24:08;;;;;;;31.60;15.45;;;;;;;;;;5068819;28;20123;-77
2022/01/24 06:26:34;;;;;;;31.40;15.18;;;;;;;;;;5052543;28;20076;-77
2022/01/24 06:29:00;;;;;;;29.75;15.77;;;;;;;;;;5051565;28;20045;-77
2022/01/24 06:31:26;;;;;;;28.63;14.75;;;;;;;;;;5068937;28;20127;-77
2022/01/24 06:33:52;;;;;;;31.10;15.38;;;;;;;;;;5036444;28;20048;-77
2022/01/24 06:36:18;;;;;;;31.98;16.67;;;;;;;;;;5068388;28;20090;-77
2022/01/24 06:38:44;;;;;;;31.92;15.98;;;;;;;;;;5068801;28;20087;-77
2022/01/24 06:41:10;;;;;;;34.42;16.35;;;;;;;;;;5068110;28;20076;-77
2022/01/24 06:43:37;;;;;;;32.67;16.63;;;;;;;;;;5069646;28;20044;-77
2022/01/24 06:46:03;;;;;;;30.45;15.90;;;;;;;;;;5068320;28;20351;-77
2022/01/24 06:48:29;;;;;;;32.38;16.40;;;;;;;;;;5068374;28;20044;-77
2022/01/24 06:50:55;;;;;;;30.63;15.55;;;;;;;;;;5068826;28;20395;-77
2022/01/24 06:53:21;;;;;;;34.22;16.33;;;;;;;;;;5068239;28;20044;-77
2022/01/24 06:55:47;;;;;;;32.22;15.65;;;;;;;;;;5051709;28;20090;-77
2022/01/24 06:58:13;;;;;;;32.13;15.43;;;;;;;;;;5034838;28;20397;-77
2022/01/24 07:00:39;;;;;;;29.88;14.80;;;;;;;;;;5068282;28;20080;-77
2022/01/24 07:03:05;;;;;;;30.67;15.52;;;;;;;;;;5068049;28;20451;-77
2022/01/24 07:05:32;;;;;;;31.40;15.10;;;;;;;;;;5068275;28;20401;-77
2022/01/24 07:07:59;;;;;;;28.33;15.05;;;;;;;;;;5068627;28;20607;-77
2022/01/24 07:10:26;;;;;;;31.60;15.15;;;;;;;;;;5051981;28;20041;-77
2022/01/24 07:12:52;;;;;;;30.52;15.27;;;;;;;;;;5068058;28;20052;-77
2022/01/24 07:15:21;;;;;;;28.95;14.60;;;;;;;;;;5051196;28;20598;-77
2022/01/24 07:18:15;;;;;;;30.20;15.00;;;;;;;;;;5068170;28;20071;-77
2022/01/24 07:20:41;;;;;;;29.83;15.43;;;;;;;;;;5068044;28;20049;-77
2022/01/24 07:23:07;;;;;;;30.25;15.75;;;;;;;;;;5067963;28;20485;-77
2022/01/24 07:25:33;;;;;;;32.78;14.93;;;;;;;;;;5068140;28;20037;-77
2022/01/24 07:27:59;;;;;;;33.25;16.17;;;;;;;;;;5069341;28;20048;-77
2022/01/24 07:30:25;;;;;;;34.63;16.08;;;;;;;;;;5067953;28;20101;-77
2022/01/24 07:32:51;;;;;;;35.08;17.10;;;;;;;;;;5068013;28;20099;-77
2022/01/24 07:35:18;;;;;;;34.22;16.92;;;;;;;;;;5051003;28;20131;-77
2022/01/24 07:37:44;;;;;;;33.47;15.88;;;;;;;;;;5068163;28;20500;-77
2022/01/24 07:40:11;;;;;;;34.40;16.35;;;;;;;;;;5067173;28;20387;-77
2022/01/24 07:42:56;;;;;;;34.55;16.38;;;;;;;;;;5067811;28;20044;-77
2022/01/24 07:45:23;;;;;;;23.95;11.88;;;;;;;;;;5067168;28;20044;-77
2022/01/24 07:47:50;;;;;;;41.65;17.52;;;;;;;;;;5067118;28;20049;-77
2022/01/24 07:50:21;;;;;;;39.42;18.23;;;;;;;;;;5068303;28;20405;-77
2022/01/24 07:52:47;;;;;;;37.67;17.52;;;;;;;;;;5050931;28;20089;-77
2022/01/24 07:55:13;;;;;;;39.70;18.48;;;;;;;;;;5067211;28;20040;-77
2022/01/24 07:57:39;;;;;;;42.15;18.92;;;;;;;;;;5051134;28;20079;-77
2022/01/24 08:00:07;;;;;;;35.40;17.85;;;;;;;;;;5066995;28;20594;-77
2022/01/24 08:02:33;;;;;;;39.63;18.00;;;;;;;;;;5067844;28;20040;-77
2022/01/24 08:04:59;;;;;;;39.63;19.02;;;;;;;;;;5051336;28;20043;-77
2022/01/24 08:07:25;;;;;;;41.30;19.63;;;;;;;;;;5068827;28;20040;-77
2022/01/24 08:09:51;;;;;;;43.85;20.20;;;;;;;;;;5067884;28;20512;-77
2022/01/24 08:12:18;;;;;;;46.13;19.63;;;;;;;;;;5067186;28;20045;-77
2022/01/24 08:14:44;;;;;;;43.53;20.67;;;;;;;;;;5067317;28;20139;-77
2022/01/24 08:17:10;;;;;;;43.97;20.70;;;;;;;;;;5067759;28;20510;-77
2022/01/24 08:19:36;;;;;;;45.45;20.83;;;;;;;;;;5071488;28;20549;-77
2022/01/24 08:22:04;;;;;;;46.08;20.98;;;;;;;;;;5054206;28;20483;-77
2022/01/24 08:24:31;;;;;;;49.75;21.75;;;;;;;;;;5071879;28;20575;-77
2022/01/24 08:26:57;;;;;;;52.30;22.27;;;;;;;;;;5055042;28;20396;-77
2022/01/24 08:29:23;;;;;;;48.40;22.33;;;;;;;;;;5070996;28;20500;-77
2022/01/24 08:31:49;;;;;;;47.35;22.42;;;;;;;;;;5071446;28;20052;-77
2022/01/24 08:34:15;;;;;;;46.00;22.00;;;;;;;;;;5071696;28;20048;-77
2022/01/24 08:36:41;;;;;;;47.63;22.00;;;;;;;;;;5071317;28;20047;-77
2022/01/24 08:39:08;;;;;;;49.03;22.38;;;;;;;;;;5070508;28;20043;-77
2022/01/24 08:42:21;;;;;;;50.90;22.50;;;;;;;;;;5072481;28;20055;-77
2022/01/24 08:47:05;;;;;;;47.83;22.38;;;;;;;;;;5070354;28;20040;-77
2022/01/24 08:49:31;;;;;;;50.13;23.05;;;;;;;;;;5071196;28;20051;-77
2022/01/24 08:51:59;;;;;;;48.53;22.30;;;;;;;;;;5054962;28;20488;-77
2022/01/24 08:54:26;;;;;;;51.17;24.10;;;;;;;;;;5070353;28;20044;-77
2022/01/24 08:56:52;;;;;;;50.88;23.98;;;;;;;;;;5070001;28;20067;-77
2022/01/24 08:59:18;;;;;;;50.03;24.27;;;;;;;;;;5070381;28;20179;-77
2022/01/24 09:01:46;;;;;;;52.17;24.27;;;;;;;;;;5070833;28;20056;-77
2022/01/24 09:04:12;;;;;;;50.00;23.52;;;;;;;;;;5072063;28;20043;-77
2022/01/24 09:06:38;;;;;;;50.30;23.73;;;;;;;;;;5070692;28;20047;-77
2022/01/24 09:09:05;;;;;;;50.20;24.75;;;;;;;;;;5053633;28;20047;-77
2022/01/24 09:11:35;;;;;;;49.50;23.48;;;;;;;;;;5070787;28;20044;-77
2022/01/24 09:14:02;;;;;;;51.58;23.98;;;;;;;;;;5070530;28;20052;-77
2022/01/24 09:16:28;;;;;;;47.58;23.80;;;;;;;;;;5070075;28;20059;-77
2022/01/24 09:18:55;;;;;;;50.85;23.88;;;;;;;;;;5070449;28;20087;-77
2022/01/24 09:21:22;;;;;;;47.88;23.92;;;;;;;;;;5069928;28;20045;-77
2022/01/24 09:23:48;;;;;;;53.78;24.75;;;;;;;;;;5070554;28;20048;-77
2022/01/24 09:26:14;;;;;;;51.03;24.10;;;;;;;;;;5069779;28;20051;-77
2022/01/24 09:28:40;;;;;;;50.97;24.33;;;;;;;;;;5070136;28;20040;-77
2022/01/24 09:31:07;;;;;;;50.90;24.77;;;;;;;;;;5069481;28;20041;-77
2022/01/24 09:33:33;;;;;;;54.22;25.88;;;;;;;;;;5053577;28;20040;-77
2022/01/24 09:36:00;;;;;;;50.50;24.27;;;;;;;;;;5069496;28;20086;-77
2022/01/24 09:38:32;;;;;;;53.08;25.15;;;;;;;;;;5069668;28;20049;-77
2022/01/24 09:40:58;;;;;;;50.92;24.60;;;;;;;;;;5069905;28;20044;-77
2022/01/24 09:43:25;;;;;;;52.83;25.23;;;;;;;;;;5070026;28;20469;-77
2022/01/24 09:45:51;;;;;;;52.42;25.35;;;;;;;;;;5070164;28;20109;-77
2022/01/24 09:48:17;;;;;;;52.92;25.10;;;;;;;;;;5069561;28;20125;-77
2022/01/24 09:50:45;;;;;;;50.00;24.75;;;;;;;;;;5069723;28;20058;-77
2022/01/24 09:53:13;;;;;;;52.20;25.77;;;;;;;;;;5052952;28;20583;-77
2022/01/24 09:55:39;;;;;;;52.67;24.98;;;;;;;;;;5071297;28;20052;-77
2022/01/24 09:58:05;;;;;;;51.05;25.02;;;;;;;;;;5069312;28;20406;-77
2022/01/24 10:00:32;;;;;;;51.63;24.88;;;;;;;;;;5069761;28;20518;-77
2022/01/24 10:02:59;;;;;;;49.28;24.33;;;;;;;;;;5069866;28;20052;-77
2022/01/24 10:05:30;;;;;;;50.83;24.35;;;;;;;;;;5052787;28;20047;-77
2022/01/24 10:08:05;;;;;;;49.10;24.33;;;;;;;;;;5071118;28;20072;-77
2022/01/24 10:10:44;;;;;;;48.85;24.30;;;;;;;;;;5053143;28;20361;-77
2022/01/24 10:16:35;;;;;;;54.15;25.48;;;;;;;;;;5068975;28;20055;-77
2022/01/24 10:19:01;;;;;;;;;;;;;;;;;;5069482;28;20115;-77
2022/01/24 10:21:27;;;;;;;37.63;19.10;;;;;;;;;;5069080;28;20024;-77
2022/01/24 10:23:55;;;;;;;47.33;23.30;;;;;;;;;;5069595;28;20051;-77
2022/01/24 10:26:21;;;;;;;44.80;22.10;;;;;;;;;;5051865;28;20036;-77
2022/01/24 10:28:49;;;;;;;46.60;23.85;;;;;;;;;;5052895;28;20076;-77
2022/01/24 10:31:18;;;;;;;37.38;19.38;;;;;;;;;;5068800;28;20615;-77
2022/01/24 10:34:06;;;;;;;41.00;22.23;;;;;;;;;;5068816;28;20044;-77
2022/01/24 10:36:41;;;;;;;41.55;21.88;;;;;;;;;;5069105;28;20044;-77
2022/01/24 10:39:44;;;;;;;44.00;23.05;;;;;;;;;;5068949;28;20427;-77
2022/01/24 10:45:22;;;;;;;36.90;19.50;;;;;;;;;;5069179;28;20122;-77
2022/01/24 10:47:51;;;;;;;36.47;19.17;;;;;;;;;;5066472;28;20132;-77
2022/01/24 10:50:25;;;;;;;35.97;19.27;;;;;;;;;;5068081;28;20055;-77
2022/01/24 10:52:52;;;;;;;40.20;21.08;;;;;;;;;;5068915;28;20123;-77
2022/01/24 10:55:18;;;;;;;31.35;17.02;;;;;;;;;;5068227;28;20041;-77
2022/01/24 10:57:47;;;;;;;34.17;19.33;;;;;;;;;;5051677;28;20137;-77
2022/01/24 11:00:15;;;;;;;38.20;20.05;;;;;;;;;;5068206;28;20044;-77
2022/01/24 11:02:42;;;;;;;39.13;21.00;;;;;;;;;;5068527;28;20044;-77
2022/01/24 11:05:12;;;;;;;40.58;21.25;;;;;;;;;;5051684;28;20068;-77
2022/01/24 11:07:58;;;;;;;42.20;21.85;;;;;;;;;;5051870;28;20044;-77
2022/01/24 11:10:25;;;;;;;41.05;22.63;;;;;;;;;;5067885;28;20121;-77
2022/01/24 11:12:52;;;;;;;38.30;21.42;;;;;;;;;;5068442;28;20127;-77
2022/01/24 11:15:19;;;;;;;47.05;23.55;;;;;;;;;;5067927;28;20071;-77
2022/01/24 11:17:46;;;;;;;38.03;20.25;;;;;;;;;;5068324;28;20564;-77
2022/01/24 11:20:16;;;;;;;39.10;21.15;;;;;;;;;;5067723;28;20040;-77
2022/01/24 11:22:45;;;;;;;39.05;20.20;;;;;;;;;;5068101;28;20056;-78
2022/01/24 11:25:11;;;;;;;43.58;21.90;;;;;;;;;;5068142;28;20042;-77
2022/01/24 11:27:39;;;;;;;43.28;22.50;;;;;;;;;;5068174;28;20045;-77
2022/01/24 11:30:07;;;;;;;44.80;22.05;;;;;;;;;;5067856;28;20373;-77
2022/01/24 11:32:46;;;;;;;45.47;23.23;;;;;;;;;;5068372;28;20515;-77
2022/01/24 11:35:12;;;;;;;40.58;20.55;;;;;;;;;;5067571;28;20044;-77
2022/01/24 11:37:38;;;;;;;40.75;20.55;;;;;;;;;;5068124;28;20044;-77
2022/01/24 11:40:06;;;;;;;37.50;19.95;;;;;;;;;;5050995;28;20044;-77
2022/01/24 11:42:35;;;;;;;37.67;19.65;;;;;;;;;;5068220;28;20033;-77
2022/01/24 11:45:05;;;;;;;35.15;19.55;;;;;;;;;;5068449;28;20442;-77
2022/01/24 11:47:32;;;;;;;38.60;20.23;;;;;;;;;;5068072;28;20560;-77
2022/01/24 11:49:59;;;;;;;38.13;20.13;;;;;;;;;;5067944;28;20123;-77
2022/01/24 11:52:32;;;;;;;41.00;21.45;;;;;;;;;;5070914;28;20040;-77
2022/01/24 11:57:39;;;;;;;44.20;22.80;;;;;;;;;;5072191;28;20052;-77
2022/01/24 12:00:05;;;;;;;43.53;23.20;;;;;;;;;;5071405;28;20098;-77
2022/01/24 12:02:38;;;;;;;40.45;20.75;;;;;;;;;;5071867;28;20124;-77
2022/01/24 12:05:18;;;;;;;38.97;19.98;;;;;;;;;;5071415;28;20044;-76
2022/01/24 12:07:55;;;;;;;37.53;19.88;;;;;;;;;;5071827;28;20169;-76
2022/01/24 12:10:22;;;;;;;39.72;20.92;;;;;;;;;;5054675;28;20044;-77
2022/01/24 12:13:00;;;;;;;36.35;19.88;;;;;;;;;;5055154;28;20178;-77
2022/01/24 12:15:41;;;;;;;36.38;19.80;;;;;;;;;;5054494;28;20063;-77
2022/01/24 12:18:23;;;;;;;37.50;20.00;;;;;;;;;;5053747;28;20048;-77
2022/01/24 12:20:53;;;;;;;39.00;20.55;;;;;;;;;;5071347;28;20413;-77
2022/01/24 12:23:19;;;;;;;38.80;20.73;;;;;;;;;;5071024;28;20045;-76
2022/01/24 12:25:55;;;;;;;41.40;21.45;;;;;;;;;;5071928;28;20093;-76
2022/01/24 12:28:21;;;;;;;;;;;;;;;;;;5071345;28;20044;-77
2022/01/24 12:31:17;;;;;;;38.63;19.58;;;;;;;;;;5071363;28;19916;-76
2022/01/24 12:33:55;;;;;;;41.25;20.83;;;;;;;;;;5058502;28;20048;-76
2022/01/24 12:36:50;;;;;;;38.10;20.55;;;;;;;;;;5070067;28;20040;-77
2022/01/24 12:39:47;;;;;;;35.95;19.95;;;;;;;;;;5070474;28;20123;-77
2022/01/24 12:42:28;;;;;;;31.63;17.42;;;;;;;;;;5059516;28;20049;-76
2022/01/24 12:47:39;;;;;;;36.45;19.50;;;;;;;;;;5070894;28;20131;-77
2022/01/24 12:50:06;;;;;;;35.67;19.65;;;;;;;;;;5070932;28;20048;-76
2022/01/24 12:52:32;;;;;;;35.33;19.42;;;;;;;;;;5071207;28;20051;-77
2022/01/24 12:55:00;;;;;;;35.03;19.33;;;;;;;;;;5071284;28;20066;-77
2022/01/24 12:57:32;;;;;;;37.00;19.77;;;;;;;;;;5070628;28;20041;-76
2022/01/24 13:00:07;;;;;;;39.88;20.08;;;;;;;;;;5070781;28;20511;-77
2022/01/24 13:02:36;;;;;;;40.53;21.70;;;;;;;;;;5070742;28;20076;-76
2022/01/24 13:05:05;;;;;;;39.80;21.08;;;;;;;;;;5070578;28;20488;-77
2022/01/24 13:07:31;;;;;;;39.22;21.10;;;;;;;;;;5053801;28;20062;-77
2022/01/24 13:10:18;;;;;;;43.45;21.67;;;;;;;;;;5054453;28;20076;-77
2022/01/24 13:12:44;;;;;;;48.38;24.10;;;;;;;;;;5070579;28;20523;-77
2022/01/24 13:20:22;;;;;;;46.95;23.30;;;;;;;;;;5069543;28;20484;-76
2022/01/24 13:21:09;;;;;;;41.33;22.27;;;;;;;;;;5070152;28;20123;-77
2022/01/24 13:23:39;;;;;;;47.92;24.33;;;;;;;;;;5070191;28;20078;-77
2022/01/24 13:26:06;;;;;;;47.10;23.92;;;;;;;;;;5070820;28;20484;-77
2022/01/24 13:28:33;;;;;;;48.13;24.48;;;;;;;;;;5070627;28;20549;-77
2022/01/24 13:31:01;;;;;;;48.25;24.50;;;;;;;;;;5070323;28;20045;-78
2022/01/24 13:33:28;;;;;;;47.78;24.85;;;;;;;;;;5069857;28;20426;-77
2022/01/24 13:35:56;;;;;;;47.10;24.38;;;;;;;;;;5070219;28;20040;-77
2022/01/24 13:38:25;;;;;;;48.03;25.02;;;;;;;;;;5070328;28;20131;-77
2022/01/24 13:41:04;;;;;;;48.85;25.13;;;;;;;;;;5053270;28;20059;-77
2022/01/24 13:43:45;;;;;;;51.40;25.88;;;;;;;;;;5053267;28;20511;-77
2022/01/24 13:46:14;;;;;;;52.30;25.50;;;;;;;;;;5069456;28;20045;-77
2022/01/24 13:48:49;;;;;;;50.15;25.33;;;;;;;;;;5070047;28;20041;-77
2022/01/24 13:51:25;;;;;;;48.80;23.88;;;;;;;;;;5070759;28;20365;-77
2022/01/24 13:53:58;;;;;;;53.25;26.08;;;;;;;;;;5070201;28;20105;-77
2022/01/24 13:56:32;;;;;;;56.60;27.52;;;;;;;;;;5069282;28;20123;-77
2022/01/24 13:59:06;;;;;;;60.47;27.83;;;;;;;;;;5069428;28;20051;-77
2022/01/24 14:01:33;;;;;;;59.13;27.98;;;;;;;;;;5053174;28;20041;-76
2022/01/24 14:04:02;;;;;;;57.03;27.42;;;;;;;;;;5069909;28;20395;-77
2022/01/24 14:06:32;;;;;;;54.28;27.05;;;;;;;;;;5069131;28;20036;-77
2022/01/24 14:09:05;;;;;;;47.28;23.85;;;;;;;;;;5069347;28;20040;-77
2022/01/24 14:11:31;;;;;;;45.28;23.95;;;;;;;;;;5069168;28;20090;-77
2022/01/24 14:14:10;;;;;;;43.95;23.33;;;;;;;;;;5053050;28;20044;-77
2022/01/24 14:19:08;;;;;;;46.00;24.88;;;;;;;;;;5053039;28;20048;-76
2022/01/24 14:21:34;;;;;;;44.63;23.00;;;;;;;;;;5069080;28;20064;-77
2022/01/24 14:24:01;;;;;;;43.17;23.75;;;;;;;;;;5069360;28;20047;-77
2022/01/24 14:26:28;;;;;;;45.50;23.08;;;;;;;;;;5068868;28;20044;-77
2022/01/24 14:29:08;;;;;;;44.05;22.73;;;;;;;;;;5069416;28;20119;-77
2022/01/24 14:31:35;;;;;;;42.90;23.25;;;;;;;;;;5068833;28;20063;-77
2022/01/24 14:34:02;;;;;;;47.03;24.15;;;;;;;;;;5070314;28;20099;-77
2022/01/24 14:36:28;;;;;;;49.05;24.50;;;;;;;;;;5068375;28;20033;-77
2022/01/24 14:38:57;;;;;;;48.88;24.85;;;;;;;;;;5069189;28;20468;-77
2022/01/24 14:41:47;;;;;;;50.08;25.58;;;;;;;;;;5068473;28;20079;-77
2022/01/24 14:47:00;;;;;;;48.63;24.35;;;;;;;;;;5069020;28;20446;-77
2022/01/24 14:49:27;;;;;;;53.30;27.38;;;;;;;;;;5068235;28;20100;-77
2022/01/24 14:52:03;;;;;;;53.15;25.50;;;;;;;;;;5069030;28;20040;-77
2022/01/24 14:54:31;;;;;;;52.70;26.90;;;;;;;;;;5068434;28;20048;-77
2022/01/24 14:56:58;;;;;;;52.03;25.65;;;;;;;;;;5068937;28;20506;-77
2022/01/24 14:59:25;;;;;;;53.47;25.98;;;;;;;;;;5068223;28;20470;-77
2022/01/24 15:01:51;;;;;;;53.08;26.77;;;;;;;;;;5051713;28;20101;-77
2022/01/24 15:04:17;;;;;;;51.03;25.42;;;;;;;;;;5068186;28;20082;-77
2022/01/24 15:06:44;;;;;;;52.13;25.27;;;;;;;;;;5068068;28;20044;-77
2022/01/24 15:09:15;;;;;;;57.60;27.88;;;;;;;;;;5067808;28;20046;-77
2022/01/24 15:11:42;;;;;;;50.45;25.20;;;;;;;;;;5051667;28;20063;-77
2022/01/24 15:14:25;;;;;;;56.83;26.67;;;;;;;;;;5067775;28;20067;-77
2022/01/24 15:17:11;;;;;;;50.38;24.88;;;;;;;;;;5051778;28;20056;-77
2022/01/24 15:27:49;;;;;;;46.90;24.33;;;;;;;;;;5068221;28;20051;-77
2022/01/24 15:30:17;;;;;;;48.15;24.65;;;;;;;;;;5051317;28;20369;-77
2022/01/24 15:32:43;;;;;;;49.08;24.90;;;;;;;;;;5068174;28;20119;-77
2022/01/24 15:35:10;;;;;;;48.75;24.00;;;;;;;;;;5067377;28;20048;-77
2022/01/24 15:37:36;;;;;;;47.45;24.25;;;;;;;;;;5067964;28;20454;-77
2022/01/24 15:40:04;;;;;;;49.35;25.15;;;;;;;;;;5069278;28;20384;-77
2022/01/24 15:42:39;;;;;;;46.17;23.90;;;;;;;;;;5050985;28;20063;-77
2022/01/24 15:47:44;;;;;;;45.00;23.08;;;;;;;;;;5069522;28;20094;-77
2022/01/24 15:50:21;;;;;;;50.22;23.15;;;;;;;;;;5067986;28;20050;-77
2022/01/24 15:52:48;;;;;;;45.85;23.23;;;;;;;;;;5049272;28;20072;-77
2022/01/24 15:55:16;;;;;;;46.08;23.42;;;;;;;;;;5081044;28;20044;-77
2022/01/24 15:57:43;;;;;;;48.20;23.23;;;;;;;;;;5081275;28;20041;-77
2022/01/24 16:00:11;;;;;;;47.70;24.42;;;;;;;;;;5047497;28;20053;-77
2022/01/24 16:02:38;;;;;;;51.03;24.85;;;;;;;;;;5081353;28;20049;-77
2022/01/24 16:05:04;;;;;;;51.20;25.10;;;;;;;;;;5081541;28;20072;-77
2022/01/24 16:07:31;;;;;;;49.47;24.38;;;;;;;;;;5047634;28;20053;-77
2022/01/24 16:09:57;;;;;;;49.50;24.50;;;;;;;;;;5081352;28;20443;-77
2022/01/24 16:12:23;;;;;;;46.85;23.02;;;;;;;;;;5080086;28;20037;-77
2022/01/24 16:14:49;;;;;;;45.80;23.63;;;;;;;;;;5081217;28;20088;-77
2022/01/24 16:17:16;;;;;;;50.00;25.10;;;;;;;;;;5030738;28;20052;-77
2022/01/24 16:19:49;;;;;;;49.20;24.25;;;;;;;;;;5064811;28;20120;-77
2022/01/24 16:22:29;;;;;;;48.63;24.27;;;;;;;;;;5048384;28;20073;-77
2022/01/24 16:27:40;;;;;;;50.58;25.08;;;;;;;;;;5067427;28;20366;-77
2022/01/24 16:30:06;;;;;;;52.78;25.73;;;;;;;;;;5081105;28;20054;-77
2022/01/24 16:32:35;;;;;;;50.45;24.85;;;;;;;;;;5081296;28;20469;-77
2022/01/24 16:35:03;;;;;;;50.20;24.88;;;;;;;;;;5081482;28;20049;-77
2022/01/24 16:37:34;;;;;;;56.53;26.55;;;;;;;;;;5080362;28;20060;-77
2022/01/24 16:40:01;;;;;;;57.90;26.85;;;;;;;;;;5034083;28;20411;-77
2022/01/24 16:42:29;;;;;;;58.72;26.33;;;;;;;;;;5084432;28;20037;-77
2022/01/24 16:45:13;;;;;;;56.75;26.52;;;;;;;;;;5084794;28;20033;-76
2022/01/24 16:47:40;;;;;;;54.28;25.42;;;;;;;;;;5084576;28;20084;-77